Kirkland, WA (98033)

9:39 AM PST on February 01, 2015 (GMT -0800)
Kirkland, Wa | Change Station
CLOSE
Current Station
Personal Weather Station
Location: Kirkland, WA
Elevation: 233 ft
Nearby Weather Stations

Elev 233 ft 47.69 °N, 122.19 °W | Updated 1 second ago

Overcast
Overcast
43.9 °F
Feels Like 41 °F
N
4.8
Wind Variable Wind from SSE
Gusts 8.3 mph

Today
High -- | Low -- °F
--% Chance of Precip.
Yesterday
High -- | Low -- °F
Precip. -- in
7:35 AM 5:09 PM
Waxing Gibbous, 95% visible
Pressure 30.04 in
Visibility 7.0 miles
Clouds Overcast 6000 ft
Windchill 41 °F
Dew Point 40 °F
Humidity 86%
Rainfall 0.00 in
Snow Depth Not available.
UV 0 out of 12
Pollen 5.70 out of 12
Air Quality Not available.
Flu Activity Not available.
METAR KBFI 011653Z 19004KT 7SM OVC060 08/05 A3004 RMK AO2 RAE01 SLP171 P0000 T00780050

More Conditions Fewer Conditions

Pressure 30.04 in
Visibility 7.0 miles
Clouds Overcast 6000 ft
Windchill 41 °F
Dew Point 40 °F
Humidity 86%
Rainfall 0.00 in
Snow Depth Not available.
UV 0 out of 12
Pollen 5.70 out of 12
Air Quality Not available.
Flu Activity Not available.
METAR KBFI 011653Z 19004KT 7SM OVC060 08/05 A3004 RMK AO2 RAE01 SLP171 P0000 T00780050

More Conditions Fewer Conditions

10-Day Weather Forecast

Almanac

Astronomy

Feb. 01, 2015 Rise Set
Actual Time
Civil Twilight
Nautical Twilight
Astronomical Twilight
Moon
Length of Visible Light
Length of Day
Tomorrow will be .
, % of the Moon is Illuminated

Today's Extremes

State Highs State Lows

Community

WunderPhotos

Upload Photos

1,792,405 photos uploaded!

WunderBlogs® & News

Nearby

Air Quality

  Air Quality AQ Index Pollutant
Not available.

Snow Depth

Station Depth Elevation

Earthquake Activity

City Distance Mag. Time & Date
Minimum magnitude displayed is 2.5.

Coastal Water Temperatures

Place Temperature

Nearby Weather Stations